createdAt,value
2023-04-09T00:01:30.694Z,53.13
2023-04-09T00:03:57.863Z,55.43
2023-04-09T00:06:25.212Z,71.17
2023-04-09T00:08:52.493Z,111.70
2023-04-09T00:11:22.481Z,82.33
2023-04-09T00:13:49.632Z,72.23
2023-04-09T00:16:16.726Z,63.33
2023-04-09T00:18:44.116Z,52.17
2023-04-09T00:21:11.276Z,57.80
2023-04-09T00:23:40.528Z,50.73
2023-04-09T00:26:07.612Z,55.80
2023-04-09T00:28:36.062Z,49.20
2023-04-09T00:31:03.240Z,50.20
2023-04-09T00:33:31.009Z,48.73
2023-04-09T00:35:58.072Z,45.53
2023-04-09T00:38:25.027Z,42.60
2023-04-09T00:40:52.863Z,39.07
2023-04-09T00:43:19.905Z,46.67
2023-04-09T00:45:47.570Z,41.40
2023-04-09T00:48:16.199Z,42.50
2023-04-09T00:50:43.704Z,52.40
2023-04-09T00:53:12.203Z,51.10
2023-04-09T00:55:42.785Z,63.63
2023-04-09T00:58:09.885Z,74.60
2023-04-09T01:00:36.942Z,99.67
2023-04-09T01:03:06.555Z,88.90
2023-04-09T01:06:01.649Z,80.70
2023-04-09T01:08:50.431Z,78.20
2023-04-09T01:11:43.686Z,57.13
2023-04-09T01:14:20.062Z,56.77
2023-04-09T01:16:52.955Z,54.30
2023-04-09T01:19:54.245Z,57.10
2023-04-09T01:22:50.251Z,56.03
2023-04-09T01:25:32.821Z,53.27
2023-04-09T01:28:31.982Z,44.13
2023-04-09T01:31:02.917Z,41.43
2023-04-09T01:33:31.781Z,40.97
2023-04-09T01:36:00.442Z,41.70
2023-04-09T01:38:29.065Z,41.90
2023-04-09T01:40:57.854Z,40.07
2023-04-09T01:43:25.288Z,39.80
2023-04-09T01:45:52.992Z,39.43
2023-04-09T01:48:21.252Z,36.20
2023-04-09T01:50:49.236Z,42.97
2023-04-09T01:53:19.721Z,40.60
2023-04-09T01:55:46.599Z,43.17
2023-04-09T01:58:13.985Z,39.40
2023-04-09T02:00:48.205Z,42.27
2023-04-09T02:03:29.802Z,36.53
2023-04-09T02:06:09.296Z,40.23
2023-04-09T02:08:37.737Z,38.47
2023-04-09T02:11:10.751Z,40.00
2023-04-09T02:13:40.702Z,37.63
2023-04-09T02:16:09.553Z,40.27
2023-04-09T02:18:36.865Z,36.73
2023-04-09T02:21:05.722Z,37.37
2023-04-09T02:23:33.650Z,40.50
2023-04-09T02:26:01.357Z,40.73
2023-04-09T02:28:31.634Z,41.53
2023-04-09T02:30:58.748Z,40.00
2023-04-09T02:33:25.843Z,44.90
2023-04-09T02:35:52.931Z,38.93
2023-04-09T02:38:19.938Z,40.53
2023-04-09T02:40:47.223Z,37.57
2023-04-09T02:43:14.248Z,37.67
2023-04-09T02:45:41.200Z,39.90
2023-04-09T02:48:08.141Z,40.23
2023-04-09T02:50:35.994Z,47.50
2023-04-09T02:53:03.424Z,38.13
2023-04-09T02:55:30.705Z,42.40
2023-04-09T02:57:57.695Z,45.43
2023-04-09T03:00:24.804Z,39.17
2023-04-09T03:02:52.449Z,40.03
2023-04-09T03:05:19.563Z,43.47
2023-04-09T03:07:47.393Z,44.97
2023-04-09T03:10:14.505Z,43.70
2023-04-09T03:12:44.461Z,42.37
2023-04-09T03:15:11.753Z,43.10
2023-04-09T03:17:39.601Z,41.17
2023-04-09T03:20:07.750Z,39.90
2023-04-09T03:22:38.143Z,44.93
2023-04-09T03:25:11.413Z,40.90
2023-04-09T03:27:38.459Z,46.27
2023-04-09T03:30:05.899Z,40.93
2023-04-09T03:32:39.623Z,36.77
2023-04-09T03:35:07.439Z,34.57
2023-04-09T03:37:34.674Z,37.37
2023-04-09T03:40:03.265Z,37.80
2023-04-09T03:42:31.628Z,38.17
2023-04-09T03:45:01.742Z,34.17
2023-04-09T03:47:35.267Z,44.17
2023-04-09T03:50:03.023Z,35.90
2023-04-09T03:52:42.358Z,35.77
2023-04-09T03:55:10.635Z,39.60
2023-04-09T03:57:38.080Z,41.07
2023-04-09T04:00:09.646Z,41.60
2023-04-09T04:02:51.265Z,41.77
2023-04-09T04:05:27.806Z,44.20
2023-04-09T04:07:58.192Z,39.47
2023-04-09T04:10:28.452Z,34.83
2023-04-09T04:12:55.604Z,34.53
2023-04-09T04:15:29.684Z,37.20
2023-04-09T04:17:57.173Z,35.27
2023-04-09T04:20:37.225Z,42.50
2023-04-09T04:23:10.790Z,46.43
2023-04-09T04:25:45.472Z,40.73
2023-04-09T04:28:16.782Z,50.73
2023-04-09T04:30:43.883Z,54.90
2023-04-09T04:33:11.239Z,54.43
2023-04-09T04:35:49.735Z,60.83
2023-04-09T04:38:43.054Z,47.03
2023-04-09T04:41:18.878Z,57.23
2023-04-09T04:43:52.941Z,48.17
2023-04-09T04:46:23.227Z,52.93
2023-04-09T04:48:50.623Z,59.73
2023-04-09T04:51:18.010Z,62.03
2023-04-09T04:53:57.341Z,65.13
2023-04-09T04:56:24.780Z,65.87
2023-04-09T04:59:17.692Z,64.83
2023-04-09T05:01:57.895Z,54.73
2023-04-09T05:04:26.508Z,64.30
2023-04-09T05:06:55.740Z,54.43
2023-04-09T05:09:24.200Z,59.43
2023-04-09T05:12:04.152Z,57.20
2023-04-09T05:14:31.614Z,57.83
2023-04-09T05:16:58.818Z,52.70
2023-04-09T05:19:31.358Z,57.50
2023-04-09T05:22:02.248Z,60.60
2023-04-09T05:24:29.958Z,61.20
2023-04-09T05:26:57.617Z,61.93
2023-04-09T05:29:25.686Z,59.63
2023-04-09T05:31:52.647Z,57.17
2023-04-09T05:34:36.395Z,59.90
2023-04-09T05:37:03.702Z,54.93
2023-04-09T05:39:33.064Z,54.63
2023-04-09T05:42:01.137Z,46.50
2023-04-09T05:44:54.326Z,44.17
2023-04-09T05:47:22.079Z,71.27
2023-04-09T05:50:03.503Z,46.20
2023-04-09T05:52:30.650Z,73.70
2023-04-09T05:54:58.012Z,77.07
2023-04-09T05:57:37.859Z,56.57
2023-04-09T06:00:05.508Z,46.70
2023-04-09T06:02:43.552Z,47.63
2023-04-09T06:05:11.139Z,36.80
2023-04-09T06:07:38.691Z,31.90
2023-04-09T06:10:06.401Z,24.53
2023-04-09T06:12:35.606Z,23.97
2023-04-09T06:15:05.681Z,25.97
2023-04-09T06:17:33.282Z,23.37
2023-04-09T06:20:00.306Z,24.97
2023-04-09T06:22:27.348Z,25.77
2023-04-09T06:24:54.271Z,24.57
2023-04-09T06:27:22.867Z,28.67
2023-04-09T06:29:49.818Z,28.30
2023-04-09T06:32:17.103Z,30.87
2023-04-09T06:34:44.132Z,32.97
2023-04-09T06:37:11.285Z,29.83
2023-04-09T06:39:40.364Z,27.17
2023-04-09T06:42:09.447Z,28.87
2023-04-09T06:44:49.878Z,27.05
2023-04-09T06:47:16.861Z,29.20
2023-04-09T06:49:43.901Z,27.02
2023-04-09T06:52:11.008Z,24.80
2023-04-09T06:54:37.948Z,26.73
2023-04-09T06:57:07.009Z,26.83
2023-04-09T06:59:34.041Z,25.55
2023-04-09T07:02:01.311Z,25.75
2023-04-09T07:04:28.420Z,24.13
2023-04-09T07:06:56.894Z,23.25
2023-04-09T07:09:23.903Z,21.70
2023-04-09T07:11:51.520Z,23.70
2023-04-09T07:14:18.481Z,24.30
2023-04-09T07:16:46.605Z,21.58
2023-04-09T07:19:13.591Z,23.55
2023-04-09T07:21:40.835Z,22.75
2023-04-09T07:24:07.767Z,21.27
2023-04-09T07:26:35.216Z,20.48
2023-04-09T07:29:03.926Z,19.30
2023-04-09T07:31:32.807Z,19.23
2023-04-09T07:34:00.939Z,19.45
2023-04-09T07:36:28.057Z,19.17
2023-04-09T07:38:55.279Z,20.00
2023-04-09T07:41:22.430Z,20.75
2023-04-09T07:43:49.383Z,18.42
2023-04-09T07:46:22.273Z,18.88
2023-04-09T07:48:50.766Z,16.88
2023-04-09T07:51:18.185Z,19.75
2023-04-09T07:53:45.246Z,20.83
2023-04-09T07:56:12.392Z,20.25
2023-04-09T07:58:39.353Z,18.52
2023-04-09T08:01:06.524Z,19.55
2023-04-09T08:03:33.744Z,20.42
2023-04-09T08:06:01.334Z,19.90
2023-04-09T08:08:28.484Z,19.90
2023-04-09T08:10:55.704Z,18.25
2023-04-09T08:13:25.333Z,23.40
2023-04-09T08:15:52.567Z,20.95
2023-04-09T08:18:19.986Z,20.25
2023-04-09T08:20:47.211Z,19.08
2023-04-09T08:23:14.233Z,19.65
2023-04-09T08:25:41.305Z,23.02
2023-04-09T08:28:08.464Z,18.70
2023-04-09T08:30:35.761Z,19.55
2023-04-09T08:33:02.852Z,18.33
2023-04-09T08:35:33.063Z,18.95
2023-04-09T08:38:00.198Z,19.63
2023-04-09T08:40:27.161Z,18.80
2023-04-09T08:42:58.769Z,19.08
2023-04-09T08:45:25.951Z,20.15
2023-04-09T08:47:53.265Z,18.88
2023-04-09T08:50:20.755Z,18.92
2023-04-09T08:52:48.653Z,18.73
2023-04-09T08:55:15.699Z,19.33
2023-04-09T08:57:43.199Z,20.58
2023-04-09T09:00:10.979Z,19.27
2023-04-09T09:02:39.485Z,19.40
2023-04-09T09:05:07.102Z,21.13
2023-04-09T09:07:34.384Z,19.55
2023-04-09T09:10:04.513Z,18.55
2023-04-09T09:12:40.385Z,17.98
2023-04-09T09:15:27.377Z,18.67
2023-04-09T09:18:00.244Z,18.08
2023-04-09T09:20:27.946Z,18.05
2023-04-09T09:22:56.043Z,18.80
2023-04-09T09:25:26.026Z,16.63
2023-04-09T09:27:54.816Z,17.48
2023-04-09T09:30:22.934Z,16.55
2023-04-09T09:33:10.758Z,17.20
2023-04-09T09:35:49.059Z,18.52
2023-04-09T09:38:17.179Z,17.05
2023-04-09T09:40:44.919Z,16.35
2023-04-09T09:43:14.536Z,15.50
2023-04-09T09:45:44.029Z,14.85
2023-04-09T09:48:12.898Z,16.02
2023-04-09T09:50:43.673Z,15.18
2023-04-09T09:53:12.191Z,14.60
2023-04-09T09:55:41.117Z,14.98
2023-04-09T09:58:17.931Z,16.02
2023-04-09T10:00:48.503Z,15.45
2023-04-09T10:03:21.501Z,16.52
2023-04-09T10:05:49.436Z,16.13
2023-04-09T10:08:17.275Z,15.52
2023-04-09T10:10:44.841Z,15.38
2023-04-09T10:13:22.001Z,14.80
2023-04-09T10:15:49.604Z,15.40
2023-04-09T10:18:17.787Z,16.05
2023-04-09T10:21:24.260Z,19.45
2023-04-09T10:23:53.070Z,15.35
2023-04-09T10:26:20.388Z,14.40
2023-04-09T10:28:47.635Z,16.45
2023-04-09T10:31:14.836Z,12.73
2023-04-09T10:33:44.197Z,14.30
2023-04-09T10:36:12.955Z,12.30
2023-04-09T10:38:45.329Z,10.98
2023-04-09T10:41:21.798Z,13.82
2023-04-09T10:43:49.160Z,15.27
2023-04-09T10:46:31.507Z,13.95
2023-04-09T10:49:19.074Z,14.88
2023-04-09T10:52:07.885Z,13.48
2023-04-09T10:54:38.063Z,14.93
2023-04-09T10:57:08.212Z,14.00
2023-04-09T10:59:45.107Z,13.93
2023-04-09T11:02:40.260Z,13.77
2023-04-09T11:05:31.468Z,12.05
2023-04-09T11:08:04.331Z,12.95
2023-04-09T11:10:32.739Z,12.93
2023-04-09T11:13:00.581Z,12.38
2023-04-09T11:15:28.030Z,12.10
2023-04-09T11:17:55.860Z,11.77
2023-04-09T11:20:25.614Z,13.35
2023-04-09T11:22:54.743Z,13.02
2023-04-09T11:25:26.479Z,13.52
2023-04-09T11:27:54.235Z,11.32
2023-04-09T11:30:21.393Z,11.70
2023-04-09T11:32:49.951Z,12.23
2023-04-09T11:35:22.131Z,11.05
2023-04-09T11:37:50.426Z,11.52
2023-04-09T11:40:23.127Z,11.52
2023-04-09T11:42:54.588Z,11.85
2023-04-09T11:45:25.328Z,10.93
2023-04-09T11:47:53.655Z,10.55
2023-04-09T11:50:21.799Z,9.90
2023-04-09T11:52:50.042Z,8.50
2023-04-09T11:55:25.020Z,8.45
2023-04-09T11:57:54.558Z,11.75
2023-04-09T12:00:21.793Z,9.77
2023-04-09T12:02:50.655Z,10.13
2023-04-09T12:05:29.750Z,9.23
2023-04-09T12:08:01.525Z,9.88
2023-04-09T12:10:30.092Z,9.88
2023-04-09T12:13:03.031Z,9.52
2023-04-09T12:15:34.843Z,10.20
2023-04-09T12:18:02.146Z,10.38
2023-04-09T12:20:39.626Z,10.27
2023-04-09T12:23:07.650Z,13.27
2023-04-09T12:25:39.982Z,9.82
2023-04-09T12:28:09.153Z,10.07
2023-04-09T12:30:36.309Z,9.05
2023-04-09T12:33:04.688Z,9.27
2023-04-09T12:35:32.300Z,10.68
2023-04-09T12:37:59.512Z,9.93
2023-04-09T12:40:27.167Z,10.50
2023-04-09T12:42:54.290Z,9.65
2023-04-09T12:45:21.670Z,10.63
2023-04-09T12:47:49.277Z,10.63
2023-04-09T12:50:16.716Z,9.88
2023-04-09T12:52:44.604Z,10.43
2023-04-09T12:55:12.852Z,10.60
2023-04-09T12:57:42.370Z,10.85
2023-04-09T13:00:09.981Z,9.75
2023-04-09T13:02:37.202Z,9.80
2023-04-09T13:05:04.910Z,9.50
2023-04-09T13:07:31.932Z,8.77
2023-04-09T13:09:58.883Z,11.23
2023-04-09T13:12:25.997Z,10.30
2023-04-09T13:14:54.468Z,10.13
2023-04-09T13:17:22.101Z,10.40
2023-04-09T13:19:50.519Z,10.40
2023-04-09T13:22:18.401Z,9.05
2023-04-09T13:24:45.414Z,9.73
2023-04-09T13:27:12.503Z,9.95
2023-04-09T13:29:39.852Z,9.63
2023-04-09T13:32:07.595Z,10.43
2023-04-09T13:34:35.629Z,11.85
2023-04-09T13:37:03.790Z,11.55
2023-04-09T13:39:31.359Z,11.23
2023-04-09T13:41:58.686Z,11.80
2023-04-09T13:44:26.839Z,9.48
2023-04-09T13:46:54.081Z,9.90
2023-04-09T13:49:21.161Z,11.40
2023-04-09T13:51:50.148Z,9.63
2023-04-09T13:54:17.553Z,11.18
2023-04-09T13:56:46.118Z,11.80
2023-04-09T13:59:13.154Z,9.73
2023-04-09T14:01:41.014Z,10.55
2023-04-09T14:04:08.410Z,10.75
2023-04-09T14:06:35.693Z,10.68
2023-04-09T14:09:02.842Z,10.27
2023-04-09T14:11:29.881Z,11.93
2023-04-09T14:13:56.929Z,11.35
2023-04-09T14:16:24.128Z,11.18
2023-04-09T14:18:51.589Z,10.95
2023-04-09T14:21:19.061Z,13.77
2023-04-09T14:23:46.481Z,11.05
2023-04-09T14:26:13.655Z,10.68
2023-04-09T14:28:40.957Z,11.15
2023-04-09T14:31:08.112Z,10.25
2023-04-09T14:33:35.563Z,11.45
2023-04-09T14:36:02.637Z,11.50
2023-04-09T14:38:30.230Z,12.57
2023-04-09T14:40:57.298Z,10.68
2023-04-09T14:43:24.248Z,11.23
2023-04-09T14:45:51.834Z,11.02
2023-04-09T14:48:18.849Z,11.40
2023-04-09T14:50:45.923Z,10.60
2023-04-09T14:53:12.869Z,9.90
2023-04-09T14:55:39.966Z,11.65
2023-04-09T14:58:08.174Z,10.63
2023-04-09T15:00:36.150Z,10.23
2023-04-09T15:05:30.830Z,9.38
2023-04-09T15:07:59.594Z,10.10
2023-04-09T15:10:26.624Z,12.25
2023-04-09T15:12:53.653Z,9.60
2023-04-09T15:15:21.006Z,10.30
2023-04-09T15:17:48.080Z,10.88
2023-04-09T15:20:15.157Z,9.93
2023-04-09T15:22:42.151Z,12.00
2023-04-09T15:25:09.334Z,9.63
2023-04-09T15:27:36.593Z,9.60
2023-04-09T15:30:04.091Z,11.50
2023-04-09T15:32:31.382Z,10.75
2023-04-09T15:35:00.134Z,8.32
2023-04-09T15:37:27.264Z,10.52
2023-04-09T15:39:54.284Z,9.45
2023-04-09T15:42:22.954Z,8.60
2023-04-09T15:44:50.626Z,8.80
2023-04-09T15:47:17.844Z,8.48
2023-04-09T15:49:44.893Z,9.05
2023-04-09T15:52:11.920Z,8.18
2023-04-09T15:54:38.926Z,10.15
2023-04-09T15:57:06.022Z,8.57
2023-04-09T15:59:33.336Z,8.13
2023-04-09T16:02:00.510Z,10.93
2023-04-09T16:04:27.739Z,7.65
2023-04-09T16:06:56.318Z,7.68
2023-04-09T16:09:24.152Z,8.02
2023-04-09T16:11:51.349Z,7.88
2023-04-09T16:14:18.373Z,8.02
2023-04-09T16:16:47.371Z,10.88
2023-04-09T16:19:14.386Z,10.68
2023-04-09T16:21:44.529Z,9.25
2023-04-09T16:24:15.868Z,10.82
2023-04-09T16:26:44.528Z,9.48
2023-04-09T16:29:12.804Z,7.13
2023-04-09T16:31:42.900Z,8.40
2023-04-09T16:34:09.925Z,8.68
2023-04-09T16:36:37.253Z,8.75
2023-04-09T16:39:05.293Z,10.48
2023-04-09T16:41:34.352Z,9.47
2023-04-09T16:44:02.970Z,8.63
2023-04-09T16:46:30.374Z,9.67
2023-04-09T16:48:57.413Z,9.00
2023-04-09T16:51:24.457Z,10.70
2023-04-09T16:53:51.692Z,11.30
2023-04-09T16:56:18.673Z,13.33
2023-04-09T16:58:46.635Z,9.60
2023-04-09T17:01:13.647Z,9.20
2023-04-09T17:03:40.819Z,10.27
2023-04-09T17:06:07.920Z,8.77
2023-04-09T17:08:35.542Z,10.60
2023-04-09T17:11:02.763Z,9.23
2023-04-09T17:13:31.745Z,8.87
2023-04-09T17:15:58.849Z,10.23
2023-04-09T17:18:25.971Z,10.27
2023-04-09T17:20:53.471Z,8.77
2023-04-09T17:23:21.870Z,9.50
2023-04-09T17:25:49.275Z,8.70
2023-04-09T17:28:18.708Z,9.60
2023-04-09T17:30:46.102Z,9.03
2023-04-09T17:33:16.340Z,9.10
2023-04-09T17:35:43.466Z,9.17
2023-04-09T17:38:13.893Z,10.27
2023-04-09T17:40:41.034Z,8.77
2023-04-09T17:43:07.972Z,8.97
2023-04-09T17:45:34.966Z,9.40
2023-04-09T17:48:02.939Z,9.63
2023-04-09T17:50:29.961Z,11.33
2023-04-09T17:52:57.237Z,9.77
2023-04-09T17:55:24.500Z,11.90
2023-04-09T17:57:51.442Z,11.10
2023-04-09T18:00:18.841Z,13.93
2023-04-09T18:02:47.232Z,12.67
2023-04-09T18:05:14.626Z,13.00
2023-04-09T18:07:41.672Z,15.97
2023-04-09T18:10:08.969Z,16.17
2023-04-09T18:12:36.076Z,15.73
2023-04-09T18:15:04.291Z,19.40
2023-04-09T18:17:32.357Z,19.23
2023-04-09T18:19:59.478Z,20.03
2023-04-09T18:22:27.732Z,21.63
2023-04-09T18:24:54.959Z,20.03
2023-04-09T18:27:22.093Z,19.07
2023-04-09T18:29:52.054Z,22.80
2023-04-09T18:32:19.826Z,20.73
2023-04-09T18:34:47.899Z,24.13
2023-04-09T18:37:15.487Z,25.70
2023-04-09T18:39:42.775Z,25.37
2023-04-09T18:42:10.209Z,30.17
2023-04-09T18:44:40.205Z,37.40
2023-04-09T18:47:10.587Z,41.20
2023-04-09T18:49:38.104Z,49.63
2023-04-09T18:52:09.353Z,38.03
2023-04-09T18:54:39.447Z,38.63
2023-04-09T18:57:07.757Z,37.13
2023-04-09T18:59:35.383Z,35.83
2023-04-09T19:02:06.947Z,37.70
2023-04-09T19:04:39.575Z,35.97
2023-04-09T19:07:07.350Z,34.53
2023-04-09T19:09:34.670Z,36.23
2023-04-09T19:12:01.949Z,34.40
2023-04-09T19:14:31.938Z,35.00
2023-04-09T19:16:59.743Z,32.80
2023-04-09T19:19:27.529Z,32.73
2023-04-09T19:21:54.573Z,33.33
2023-04-09T19:24:21.522Z,34.63
2023-04-09T19:26:52.915Z,29.20
2023-04-09T19:29:23.055Z,33.93
2023-04-09T19:31:51.346Z,36.13
2023-04-09T19:34:18.741Z,38.57
2023-04-09T19:36:46.397Z,38.37
2023-04-09T19:39:19.724Z,35.30
2023-04-09T19:41:49.381Z,33.83
2023-04-09T19:44:16.489Z,27.97
2023-04-09T19:46:49.337Z,35.13
2023-04-09T19:49:19.487Z,41.97
2023-04-09T19:51:46.707Z,38.77
2023-04-09T19:54:15.657Z,40.20
2023-04-09T19:56:44.648Z,53.80
2023-04-09T19:59:11.706Z,45.67
2023-04-09T20:01:41.460Z,49.10
2023-04-09T20:04:09.379Z,50.70
2023-04-09T20:06:37.540Z,42.93
2023-04-09T20:09:04.525Z,48.13
2023-04-09T20:11:32.965Z,46.27
2023-04-09T20:14:00.208Z,41.07
2023-04-09T20:16:27.167Z,47.87
2023-04-09T20:18:54.386Z,43.23
2023-04-09T20:21:21.505Z,46.57
2023-04-09T20:23:48.588Z,49.47
2023-04-09T20:26:15.508Z,48.17
2023-04-09T20:28:42.602Z,48.47
2023-04-09T20:31:09.597Z,45.27
2023-04-09T20:33:36.739Z,49.20
2023-04-09T20:36:04.052Z,43.53
2023-04-09T20:38:31.848Z,46.47
2023-04-09T20:41:01.400Z,49.17
2023-04-09T20:43:28.514Z,91.37
2023-04-09T20:45:55.740Z,96.80
2023-04-09T20:48:23.239Z,73.63
2023-04-09T20:50:51.189Z,124.73
2023-04-09T20:53:18.204Z,92.33
2023-04-09T20:55:46.541Z,59.53
2023-04-09T20:58:13.448Z,56.60
2023-04-09T21:00:40.572Z,57.13
2023-04-09T21:03:08.560Z,54.87
2023-04-09T21:05:35.802Z,55.33
2023-04-09T21:08:02.836Z,50.07
2023-04-09T21:10:29.973Z,53.10
2023-04-09T21:12:57.134Z,47.67
2023-04-09T21:15:24.116Z,52.87
2023-04-09T21:17:51.439Z,55.40
2023-04-09T21:20:19.468Z,51.93
2023-04-09T21:22:49.306Z,53.27
2023-04-09T21:25:16.357Z,49.63
2023-04-09T21:27:44.005Z,44.73
2023-04-09T21:30:11.713Z,40.97
2023-04-09T21:32:38.694Z,42.60
2023-04-09T21:35:06.383Z,41.03
2023-04-09T21:37:34.017Z,44.80
2023-04-09T21:40:01.738Z,41.57
2023-04-09T21:42:31.515Z,50.40
2023-04-09T21:44:58.721Z,45.23
2023-04-09T21:47:27.618Z,42.30
2023-04-09T21:49:55.792Z,45.33
2023-04-09T21:52:25.399Z,48.63
2023-04-09T21:54:55.465Z,44.90
2023-04-09T21:57:22.819Z,44.30
2023-04-09T21:59:49.850Z,42.90
2023-04-09T22:02:16.954Z,41.10
2023-04-09T22:04:44.195Z,41.90
2023-04-09T22:07:12.142Z,43.67
2023-04-09T22:09:42.660Z,41.57
2023-04-09T22:12:09.710Z,42.93
2023-04-09T22:14:36.862Z,44.60
2023-04-09T22:17:03.854Z,43.70
2023-04-09T22:19:32.122Z,41.23
2023-04-09T22:21:59.994Z,46.47
2023-04-09T22:24:28.729Z,47.63
2023-04-09T22:26:59.967Z,47.03
2023-04-09T22:29:27.722Z,56.90
2023-04-09T22:31:58.138Z,49.80
2023-04-09T22:34:25.090Z,52.63
2023-04-09T22:36:52.278Z,52.77
2023-04-09T22:39:19.398Z,60.83
2023-04-09T22:41:46.411Z,58.87
2023-04-09T22:44:13.442Z,60.20
2023-04-09T22:46:40.860Z,57.73
2023-04-09T22:49:08.267Z,61.57
2023-04-09T22:51:35.514Z,56.77
2023-04-09T22:54:02.705Z,61.23
2023-04-09T22:56:33.655Z,65.53
2023-04-09T22:59:00.865Z,65.30
2023-04-09T23:01:27.956Z,65.33
2023-04-09T23:03:55.676Z,61.90
2023-04-09T23:06:23.002Z,59.83
2023-04-09T23:08:50.170Z,60.97
2023-04-09T23:11:17.300Z,61.90
2023-04-09T23:13:44.510Z,64.53
2023-04-09T23:16:11.822Z,61.80
2023-04-09T23:18:39.353Z,70.60
2023-04-09T23:21:09.927Z,67.20
2023-04-09T23:23:37.947Z,58.87
2023-04-09T23:26:06.213Z,50.70
2023-04-09T23:28:33.698Z,58.73
2023-04-09T23:31:01.089Z,55.33
2023-04-09T23:33:28.094Z,58.30
2023-04-09T23:35:55.266Z,51.80
2023-04-09T23:38:22.245Z,51.20
2023-04-09T23:40:49.733Z,57.87
2023-04-09T23:43:16.978Z,66.20
2023-04-09T23:45:44.528Z,67.67
2023-04-09T23:48:12.799Z,72.80
2023-04-09T23:50:41.235Z,69.97
2023-04-09T23:53:08.877Z,69.77
2023-04-09T23:55:41.450Z,75.63
2023-04-09T23:58:09.652Z,74.40
